To modify the report, make a selection from each column below and re-run.

Graduation Filter Gender Min Race Filter Sort By

All-Time Report

This report ranks athletes by average career pace. You may also graphically overlay the careers of selected athletes.

The report below currently displays:

  • Grads & Current Runners
  • Girls
  • Minimum of 10 races
All Time Rank Name Grad Year Avg Pace # of Events Imprvmnts Select Runners to
Overlay Careers
1 Megan Petkovic 2008 6:22 14 7/10
2 Emily Leeb 2019 6:34 34 12/19
3 Aiko Araki 2009 6:44 11 4/6
4 Alexandria Brady 2018 6:46 19 8/11
5 Allie Poor 2023 6:49 13 1/5
6 Carolina Leyva 2012 6:51 14 5/6
7 Audrey Simpson 2019 6:56 34 13/19
8 Regan Heredia 2021 6:59 27 8/15
9 Alyssa Cook 2011 7:00 15 4/10
10 Rachel Tang 2014 7:04 14 3/7
11 Soemy Garcia 2016 7:04 30 9/19
12 Hannah Jensen 2022 7:06 24 7/10
13 Charisa Dorn 2015 7:06 14 6/6
14 Abigail Delight 2025 7:06 16 6/7
15 Ava Scarberry 2022 7:07 25 8/13
16 Sonia Salazar 2022 7:08 25 6/13
17 My Ly 2019 7:11 27 4/14
18 Lupe Mata 2024 7:11 17 6/6
19 Briana Fieffer 2020 7:17 28 12/16
20 Kristen Herrero 2014 7:24 15 5/9
21 Brooke Gann 2015 7:27 14 3/6
22 Lucy Hendriks 2025 7:29 16 7/7
23 Pamela Copley 2014 7:34 16 3/9
24 Sophia Cruz 2023 7:34 25 7/12
25 Courtney Melancon 2025 7:34 15 5/7
26 Cadence Koenke 2024 7:35 13 4/4
27 Marissa Jacobus 2011 7:39 13 6/8
28 Taylor Brobst 2019 7:41 22 5/10
29 Brittney Gann 2015 7:41 14 3/6
30 Savina Corzano 2016 7:42 13 4/6
31 Karissa Sugita 2019 7:42 25 7/12
32 Lacey Schlarmann 2021 7:42 24 10/13
33 Joanna Hwang 2018 7:44 19 6/11
34 Samantha Polk 2022 7:47 21 4/9
35 Claire Leeb 2021 7:47 23 12/13
36 Riley Clausi 2025 7:48 15 5/6
37 Yasmin Marin 2013 7:48 10 4/5
38 Autumn Long 2024 7:51 10 0/2
39 Jasmine Alvarez 2017 7:52 24 9/14
40 Melissa Bouakeo 2017 7:53 22 9/13
41 Jocelyn Corona 2024 7:53 19 6/7
42 Sandra Vu 2021 7:53 22 7/12
43 Marissa Keesey 2018 7:53 13 5/7
44 Geneve Lopez 2023 7:57 11 2/2
45 Sabrina Gutierrez 2023 7:59 18 5/8
46 Lauren Tang 2018 8:04 16 8/8
47 Vicky Vu 2014 8:05 11 4/7
48 Reagan Orr 2021 8:05 18 6/8
49 Juliana Hwang 2019 8:10 11 3/4
50 Sara Hurley 2018 8:12 24 9/14
51 Kayla Turay 2018 8:16 11 4/4
52 Taylor Perez 2019 8:20 32 15/17
53 Kaitlin Oberle 2021 8:20 21 7/12
54 Erika Nguyen 2016 8:22 14 2/7
55 Marlene Cuando 2013 8:24 10 3/4
56 Alyssa Bacilio 2025 8:27 15 3/5
57 Jamie Jow 2018 8:27 10 1/5
58 Mercedes Floyd 2016 8:27 10 2/4
59 Mia Wong 2025 8:28 14 4/5
60 Kayla Yesenosky 2024 8:30 16 4/5
61 Sabrina Bulla 2014 8:36 10 2/4
62 Chelsea Bilbia 2014 8:38 14 1/7
63 Erin Jow 2021 8:38 24 9/13
64 Alyssa VanWormer 2023 8:38 20 5/8
65 Eunice Kahng 2014 8:41 21 9/13
66 Brooke Tebbe 2014 8:48 25 6/16
67 Brenda Sendejas 2012 8:50 13 4/4
68 Elena Hernandez 2021 8:50 11 3/3
69 Breann Dolan 2024 8:58 14 3/4
70 Kelalani Luong-kha 2018 9:00 12 2/6
71 Rachel Wilkerson 2023 9:01 18 3/6
72 Samantha Skinner 2023 9:05 20 2/8
73 Viet Quyen Pham 2017 9:09 11 3/5
74 Marissa Traviglia 2022 9:13 13 2/6
75 Samantha Aguilar 2024 9:15 14 1/5
76 Carolina Meza 2023 9:19 11 2/3
77 Acelyn Dao 2024 9:36 11 2/3
78 Natalie Bonilla 2023 9:41 26 6/13
79 Sophia Gonzalez 2025 9:52 12 3/4
80 Riley Shields 2022 10:57 11 2/3
81 Sophia Choe 2018 11:13 12 5/5
All Time Rank Name Grad Year Avg Pace # of Events Imprvmnts Graph Careers